createdAt,value
2022-09-28T00:01:01.130Z,13.17
2022-09-28T00:03:29.381Z,13.19
2022-09-28T00:06:03.967Z,13.22
2022-09-28T00:08:31.904Z,13.22
2022-09-28T00:11:00.145Z,13.26
2022-09-28T00:13:28.642Z,13.07
2022-09-28T00:16:07.608Z,13.29
2022-09-28T00:18:37.558Z,13.28
2022-09-28T00:21:09.301Z,13.23
2022-09-28T00:23:58.932Z,13.24
2022-09-28T00:26:27.318Z,13.19
2022-09-28T00:28:55.953Z,13.17
2022-09-28T00:31:25.235Z,13.26
2022-09-28T00:33:55.389Z,13.17
2022-09-28T00:36:25.568Z,13.22
2022-09-28T00:38:53.543Z,13.19
2022-09-28T00:41:21.467Z,13.15
2022-09-28T00:43:49.390Z,13.12
2022-09-28T00:46:23.083Z,13.09
2022-09-28T00:48:59.393Z,13.09
2022-09-28T00:51:29.226Z,13.08
2022-09-28T00:53:57.883Z,13.08
2022-09-28T00:56:29.638Z,13.04
2022-09-28T00:59:00.340Z,13.07
2022-09-28T01:01:28.850Z,13.05
2022-09-28T01:03:57.428Z,13.06
2022-09-28T01:06:31.237Z,13.07
2022-09-28T01:09:03.046Z,13.08
2022-09-28T01:11:33.244Z,13.09
2022-09-28T01:14:02.261Z,13.11
2022-09-28T01:16:41.645Z,13.12
2022-09-28T01:19:27.358Z,13.07
2022-09-28T01:22:09.097Z,13.14
2022-09-28T01:24:43.389Z,13.14
2022-09-28T01:27:16.665Z,13.16
2022-09-28T01:29:55.357Z,13.11
2022-09-28T01:32:34.534Z,13.12
2022-09-28T01:35:07.950Z,13.23
2022-09-28T01:37:43.457Z,13.24
2022-09-28T01:40:13.329Z,13.21
2022-09-28T01:42:46.799Z,13.29
2022-09-28T01:45:21.275Z,13.31
2022-09-28T01:47:51.091Z,13.32
2022-09-28T01:50:23.889Z,13.27
2022-09-28T01:52:56.527Z,13.35
2022-09-28T01:55:31.845Z,13.07
2022-09-28T01:58:05.933Z,13.34
2022-09-28T02:00:35.802Z,13.33
2022-09-28T02:03:08.121Z,13.32
2022-09-28T02:05:38.638Z,13.33
2022-09-28T02:08:10.415Z,13.19
2022-09-28T02:10:43.965Z,13.23
2022-09-28T02:13:17.871Z,13.32
2022-09-28T02:15:51.164Z,13.31
2022-09-28T02:18:19.777Z,13.32
2022-09-28T02:21:07.434Z,13.22
2022-09-28T02:23:39.085Z,13.31
2022-09-28T02:26:11.636Z,13.29
2022-09-28T02:28:42.621Z,13.25
2022-09-28T02:31:10.589Z,13.17
2022-09-28T02:33:42.171Z,13.16
2022-09-28T02:36:10.773Z,12.79
2022-09-28T02:38:39.119Z,13.07
2022-09-28T02:41:16.128Z,13.04
2022-09-28T02:43:58.666Z,13.00
2022-09-28T02:46:33.346Z,12.97
2022-09-28T02:49:21.807Z,12.96
2022-09-28T02:52:02.836Z,12.95
2022-09-28T02:54:45.103Z,12.88
2022-09-28T02:57:25.549Z,12.96
2022-09-28T03:00:05.643Z,12.97
2022-09-28T03:02:40.321Z,12.99
2022-09-28T03:05:16.328Z,12.95
2022-09-28T03:07:53.498Z,13.02
2022-09-28T03:10:29.875Z,13.02
2022-09-28T03:12:58.887Z,13.02
2022-09-28T03:15:29.808Z,13.04
2022-09-28T03:17:58.151Z,12.97
2022-09-28T03:20:26.805Z,12.97
2022-09-28T03:23:19.611Z,13.05
2022-09-28T03:25:42.972Z,13.00
2022-09-28T03:28:10.865Z,13.05
2022-09-28T03:30:40.184Z,13.02
2022-09-28T03:33:08.269Z,12.91
2022-09-28T03:35:36.288Z,12.97
2022-09-28T03:38:04.160Z,12.92
2022-09-28T03:40:32.519Z,12.90
2022-09-28T03:43:01.781Z,12.86
2022-09-28T03:45:29.779Z,12.81
2022-09-28T03:47:59.661Z,12.79
2022-09-28T03:50:27.706Z,12.74
2022-09-28T03:52:55.590Z,12.71
2022-09-28T03:55:23.585Z,12.67
2022-09-28T03:57:55.727Z,12.64
2022-09-28T04:00:23.973Z,12.62
2022-09-28T04:02:52.146Z,12.59
2022-09-28T04:05:21.423Z,12.57
2022-09-28T04:07:49.306Z,12.54
2022-09-28T04:10:17.468Z,12.35
2022-09-28T04:12:46.026Z,12.52
2022-09-28T04:15:14.121Z,12.48
2022-09-28T04:17:42.202Z,12.47
2022-09-28T04:20:10.600Z,12.57
2022-09-28T04:22:39.874Z,12.53
2022-09-28T04:25:08.200Z,12.65
2022-09-28T04:27:53.869Z,12.64
2022-09-28T04:30:22.202Z,12.64
2022-09-28T04:32:50.526Z,12.77
2022-09-28T04:35:18.642Z,12.82
2022-09-28T04:37:48.169Z,12.84
2022-09-28T04:40:16.348Z,12.86
2022-09-28T04:42:44.272Z,12.88
2022-09-28T04:45:12.436Z,12.89
2022-09-28T04:47:40.310Z,12.85
2022-09-28T04:50:09.044Z,12.69
2022-09-28T04:52:37.983Z,12.88
2022-09-28T04:55:08.267Z,12.86
2022-09-28T04:57:36.273Z,12.85
2022-09-28T05:00:05.580Z,12.84
2022-09-28T05:02:33.694Z,12.75
2022-09-28T05:05:01.617Z,12.20
2022-09-28T05:07:31.353Z,12.72
2022-09-28T05:10:00.620Z,12.95
2022-09-28T05:12:30.189Z,12.98
2022-09-28T05:14:58.132Z,13.00
2022-09-28T05:17:25.917Z,13.00
2022-09-28T05:19:53.972Z,13.00
2022-09-28T05:22:21.891Z,13.01
2022-09-28T05:24:49.824Z,13.00
2022-09-28T05:27:17.880Z,13.02
2022-09-28T05:29:47.195Z,13.01
2022-09-28T05:32:16.856Z,13.03
2022-09-28T05:34:44.786Z,12.94
2022-09-28T05:37:12.729Z,13.05
2022-09-28T05:39:40.549Z,12.93
2022-09-28T05:42:08.621Z,13.06
2022-09-28T05:44:38.580Z,13.04
2022-09-28T05:47:07.802Z,13.03
2022-09-28T05:49:35.811Z,12.77
2022-09-28T05:52:04.038Z,12.94
2022-09-28T05:54:31.914Z,13.05
2022-09-28T05:56:59.938Z,12.93
2022-09-28T05:59:27.893Z,12.98
2022-09-28T06:01:55.726Z,12.95
2022-09-28T06:04:25.083Z,12.25
2022-09-28T06:06:53.023Z,13.09
2022-09-28T06:09:25.718Z,12.63
2022-09-28T06:11:54.468Z,13.02
2022-09-28T06:14:22.311Z,13.14
2022-09-28T06:16:50.209Z,13.14
2022-09-28T06:19:18.341Z,13.15
2022-09-28T06:21:48.556Z,13.15
2022-09-28T06:24:16.790Z,13.16
2022-09-28T06:26:44.962Z,12.90
2022-09-28T06:29:18.693Z,13.23
2022-09-28T06:31:48.372Z,13.25
2022-09-28T06:34:16.827Z,13.29
2022-09-28T06:36:44.831Z,13.29
2022-09-28T06:39:14.400Z,13.32
2022-09-28T06:41:42.626Z,13.33
2022-09-28T06:44:10.664Z,13.36
2022-09-28T06:46:40.399Z,13.38
2022-09-28T06:49:09.336Z,12.72
2022-09-28T06:51:37.778Z,13.46
2022-09-28T06:54:05.927Z,13.55
2022-09-28T06:56:35.122Z,13.63
2022-09-28T06:59:02.992Z,13.62
2022-09-28T07:01:31.494Z,13.78
2022-09-28T07:04:01.908Z,13.48
2022-09-28T07:06:31.055Z,13.83
2022-09-28T07:09:16.338Z,13.97
2022-09-28T07:11:52.793Z,13.96
2022-09-28T07:14:40.953Z,14.04
2022-09-28T07:17:14.173Z,14.08
2022-09-28T07:19:42.653Z,14.16
2022-09-28T07:22:18.557Z,14.27
2022-09-28T07:24:47.937Z,14.45
2022-09-28T07:27:17.309Z,14.67
2022-09-28T07:29:45.139Z,14.80
2022-09-28T07:32:13.193Z,14.79
2022-09-28T07:34:43.966Z,14.77
2022-09-28T07:37:12.573Z,14.79
2022-09-28T07:39:54.712Z,15.07
2022-09-28T07:42:24.030Z,15.42
2022-09-28T07:44:52.437Z,15.70
2022-09-28T07:47:30.881Z,15.79
2022-09-28T07:50:01.962Z,15.61
2022-09-28T07:52:30.066Z,15.47
2022-09-28T07:54:57.964Z,15.24
2022-09-28T07:57:27.257Z,14.86
2022-09-28T07:59:55.518Z,15.10
2022-09-28T08:02:23.495Z,15.10
2022-09-28T08:04:51.692Z,15.11
2022-09-28T08:07:23.668Z,15.00
2022-09-28T08:09:52.328Z,14.91
2022-09-28T08:12:21.448Z,14.97
2022-09-28T08:14:52.302Z,15.15
2022-09-28T08:17:20.327Z,15.27
2022-09-28T08:20:05.555Z,15.44
2022-09-28T08:22:33.827Z,15.51
2022-09-28T08:25:01.676Z,15.54
2022-09-28T08:27:29.757Z,15.51
2022-09-28T08:29:59.055Z,15.51
2022-09-28T08:32:26.873Z,15.53
2022-09-28T08:34:56.193Z,15.52
2022-09-28T08:37:24.197Z,15.52
2022-09-28T08:39:52.331Z,15.54
2022-09-28T08:42:33.346Z,15.62
2022-09-28T08:45:09.162Z,15.71
2022-09-28T08:48:08.987Z,15.00
2022-09-28T08:50:42.759Z,15.54
2022-09-28T08:53:25.539Z,15.57
2022-09-28T08:55:54.035Z,15.55
2022-09-28T08:58:28.673Z,15.55
2022-09-28T09:00:59.228Z,15.71
2022-09-28T09:03:33.227Z,15.75
2022-09-28T09:06:09.375Z,15.80
2022-09-28T09:08:50.247Z,15.60
2022-09-28T09:11:32.587Z,15.75
2022-09-28T09:14:21.524Z,15.77
2022-09-28T09:17:01.162Z,15.75
2022-09-28T09:19:36.778Z,15.63
2022-09-28T09:22:16.086Z,15.57
2022-09-28T09:24:50.460Z,15.46
2022-09-28T09:27:38.082Z,15.48
2022-09-28T09:30:11.029Z,15.44
2022-09-28T09:33:00.040Z,15.43
2022-09-28T09:36:01.024Z,15.36
2022-09-28T09:38:42.878Z,15.31
2022-09-28T09:41:20.923Z,15.19
2022-09-28T09:44:22.317Z,15.09
2022-09-28T09:46:55.459Z,15.04
2022-09-28T09:49:29.399Z,15.00
2022-09-28T09:52:05.321Z,14.94
2022-09-28T09:54:39.292Z,14.94
2022-09-28T09:57:11.740Z,14.94
2022-09-28T09:59:42.945Z,14.88
2022-09-28T10:02:21.596Z,14.81
2022-09-28T10:04:53.299Z,14.54
2022-09-28T10:07:25.584Z,14.69
2022-09-28T10:09:58.381Z,14.70
2022-09-28T10:12:26.981Z,14.35
2022-09-28T10:14:56.163Z,14.69
2022-09-28T10:17:27.488Z,14.67
2022-09-28T10:19:58.006Z,14.72
2022-09-28T10:22:28.607Z,14.69
2022-09-28T10:24:58.412Z,14.96
2022-09-28T10:27:30.798Z,15.09
2022-09-28T10:30:03.072Z,15.20
2022-09-28T10:32:40.008Z,15.42
2022-09-28T10:35:23.481Z,15.58
2022-09-28T10:37:55.374Z,15.73
2022-09-28T10:40:38.954Z,15.89
2022-09-28T10:43:18.206Z,16.01
2022-09-28T10:45:46.403Z,16.05
2022-09-28T10:48:19.947Z,16.03
2022-09-28T10:51:01.811Z,15.88
2022-09-28T10:53:29.927Z,15.50
2022-09-28T10:56:01.049Z,15.36
2022-09-28T10:58:33.539Z,15.18
2022-09-28T11:01:04.535Z,15.13
2022-09-28T11:03:33.179Z,14.91
2022-09-28T11:06:06.806Z,15.12
2022-09-28T11:08:38.800Z,15.06
2022-09-28T11:11:10.492Z,15.01
2022-09-28T11:13:47.917Z,14.89
2022-09-28T11:16:25.769Z,14.86
2022-09-28T11:18:54.276Z,15.01
2022-09-28T11:21:27.867Z,15.08
2022-09-28T11:24:06.554Z,15.05
2022-09-28T11:26:38.780Z,14.96
2022-09-28T11:29:08.598Z,14.91
2022-09-28T11:31:37.298Z,14.80
2022-09-28T11:34:14.387Z,14.52
2022-09-28T11:37:01.553Z,14.83
2022-09-28T11:39:40.023Z,14.91
2022-09-28T11:42:18.675Z,15.08
2022-09-28T11:44:48.243Z,15.21
2022-09-28T11:47:37.846Z,14.94
2022-09-28T11:50:17.839Z,15.36
2022-09-28T11:52:55.584Z,15.30
2022-09-28T11:55:32.565Z,15.45
2022-09-28T11:58:06.993Z,15.26
2022-09-28T12:00:41.127Z,14.86
2022-09-28T12:03:15.324Z,14.61
2022-09-28T12:05:47.485Z,14.68
2022-09-28T12:08:22.037Z,14.27
2022-09-28T12:10:55.720Z,14.43
2022-09-28T12:13:28.553Z,14.59
2022-09-28T12:18:52.560Z,14.74
2022-09-28T12:21:33.576Z,14.80
2022-09-28T12:24:14.184Z,14.85
2022-09-28T12:26:48.666Z,14.81
2022-09-28T12:29:22.095Z,14.68
2022-09-28T12:31:59.398Z,14.68
2022-09-28T12:34:27.413Z,14.58
2022-09-28T12:37:23.030Z,14.98
2022-09-28T12:40:12.315Z,15.34
2022-09-28T12:42:58.198Z,16.18
2022-09-28T12:46:06.797Z,17.29
2022-09-28T12:49:03.041Z,18.03
2022-09-28T12:51:48.464Z,17.98
2022-09-28T12:54:34.605Z,18.22
2022-09-28T12:57:30.058Z,18.77
2022-09-28T13:00:04.632Z,19.52
2022-09-28T13:02:57.543Z,20.30
2022-09-28T13:06:05.866Z,20.02
2022-09-28T13:08:41.359Z,19.03
2022-09-28T13:11:20.979Z,18.10
2022-09-28T13:13:59.663Z,17.45
2022-09-28T13:16:35.594Z,16.82
2022-09-28T13:19:13.140Z,16.25
2022-09-28T13:21:46.299Z,16.98
2022-09-28T13:24:33.469Z,18.18
2022-09-28T13:27:07.906Z,19.48
2022-09-28T13:32:14.073Z,21.33
2022-09-28T13:34:42.344Z,22.37
2022-09-28T13:37:26.316Z,22.91
2022-09-28T13:39:56.576Z,22.29
2022-09-28T13:42:30.508Z,20.90
2022-09-28T13:45:14.497Z,19.57
2022-09-28T13:48:15.490Z,18.47
2022-09-28T13:51:19.378Z,18.00
2022-09-28T13:54:09.674Z,17.82
2022-09-28T13:56:43.784Z,17.95
2022-09-28T13:59:19.832Z,17.74
2022-09-28T14:01:55.722Z,17.26
2022-09-28T14:04:26.027Z,16.62
2022-09-28T14:06:57.525Z,16.38
2022-09-28T14:09:44.060Z,16.03
2022-09-28T14:12:45.675Z,15.64
2022-09-28T14:15:43.556Z,17.59
2022-09-28T14:18:31.236Z,19.18
2022-09-28T14:21:22.940Z,20.37
2022-09-28T14:24:06.004Z,21.56
2022-09-28T14:27:11.396Z,22.05
2022-09-28T14:29:40.412Z,21.95
2022-09-28T14:32:23.899Z,21.25
2022-09-28T14:35:00.785Z,21.04
2022-09-28T14:37:50.314Z,20.25
2022-09-28T14:40:38.441Z,19.72
2022-09-28T14:43:29.478Z,20.06
2022-09-28T14:46:29.890Z,20.32
2022-09-28T14:49:01.865Z,20.67
2022-09-28T14:52:04.335Z,20.55
2022-09-28T14:54:45.434Z,20.99
2022-09-28T14:57:30.146Z,20.82
2022-09-28T15:00:00.858Z,20.45
2022-09-28T15:02:33.565Z,20.31
2022-09-28T15:05:15.740Z,20.31
2022-09-28T15:07:48.211Z,19.73
2022-09-28T15:10:31.601Z,19.64
2022-09-28T15:13:02.370Z,18.87
2022-09-28T15:15:34.762Z,18.22
2022-09-28T15:18:44.074Z,17.61
2022-09-28T15:21:13.124Z,16.95
2022-09-28T15:23:44.809Z,16.49
2022-09-28T15:26:24.593Z,16.08
2022-09-28T15:28:52.547Z,15.75
2022-09-28T15:31:25.755Z,15.34
2022-09-28T15:34:12.131Z,15.02
2022-09-28T15:36:41.985Z,14.63
2022-09-28T15:39:16.550Z,14.52
2022-09-28T15:41:47.118Z,14.33
2022-09-28T15:44:33.101Z,14.03
2022-09-28T15:47:14.069Z,13.98
2022-09-28T15:49:47.653Z,13.98
2022-09-28T15:52:38.501Z,13.94
2022-09-28T15:55:23.717Z,13.72
2022-09-28T15:57:51.943Z,13.63
2022-09-28T16:00:31.553Z,13.46
2022-09-28T16:03:05.702Z,13.07
2022-09-28T16:05:40.522Z,13.19
2022-09-28T16:08:21.448Z,12.11
2022-09-28T16:11:05.749Z,13.12
2022-09-28T16:13:35.120Z,13.01
2022-09-28T16:16:03.222Z,13.09
2022-09-28T16:18:33.808Z,13.09
2022-09-28T16:21:29.292Z,13.05
2022-09-28T16:23:57.590Z,12.65
2022-09-28T16:26:33.691Z,12.96
2022-09-28T16:29:07.061Z,12.93
2022-09-28T16:31:37.013Z,12.91
2022-09-28T16:34:20.932Z,12.74
2022-09-28T16:36:50.372Z,12.77
2022-09-28T16:39:19.982Z,12.71
2022-09-28T16:41:53.040Z,12.67
2022-09-28T16:44:25.928Z,12.63
2022-09-28T16:46:57.057Z,12.21
2022-09-28T16:49:26.391Z,12.39
2022-09-28T16:51:54.553Z,12.62
2022-09-28T16:54:38.476Z,12.57
2022-09-28T16:57:09.699Z,12.50
2022-09-28T16:59:38.956Z,12.39
2022-09-28T17:02:45.001Z,12.39
2022-09-28T17:05:10.334Z,12.33
2022-09-28T17:07:38.459Z,12.33
2022-09-28T17:10:16.805Z,12.28
2022-09-28T17:12:46.602Z,12.25
2022-09-28T17:15:19.642Z,11.65
2022-09-28T17:17:48.049Z,12.19
2022-09-28T17:20:22.938Z,12.17
2022-09-28T17:22:51.303Z,12.12
2022-09-28T17:25:19.260Z,12.00
2022-09-28T17:27:50.072Z,11.96
2022-09-28T17:30:22.341Z,11.89
2022-09-28T17:32:53.826Z,11.60
2022-09-28T17:35:24.593Z,11.60
2022-09-28T17:37:53.099Z,11.70
2022-09-28T17:40:23.533Z,11.64
2022-09-28T17:42:55.250Z,11.61
2022-09-28T17:45:23.772Z,11.56
2022-09-28T17:47:51.766Z,11.48
2022-09-28T17:50:24.120Z,11.40
2022-09-28T17:52:53.301Z,11.31
2022-09-28T17:55:22.712Z,10.50
2022-09-28T17:57:52.351Z,11.21
2022-09-28T18:00:20.440Z,11.18
2022-09-28T18:02:48.664Z,11.17
2022-09-28T18:05:16.620Z,11.17
2022-09-28T18:07:47.541Z,11.17
2022-09-28T18:10:18.268Z,11.17
2022-09-28T18:12:46.716Z,11.18
2022-09-28T18:15:17.117Z,10.97
2022-09-28T18:17:45.005Z,11.16
2022-09-28T18:20:14.730Z,11.14
2022-09-28T18:22:42.612Z,10.98
2022-09-28T18:25:11.187Z,11.10
2022-09-28T18:27:39.364Z,11.05
2022-09-28T18:30:08.409Z,11.01
2022-09-28T18:32:39.096Z,10.94
2022-09-28T18:35:10.275Z,10.87
2022-09-28T18:37:39.909Z,10.80
2022-09-28T18:40:09.581Z,10.75
2022-09-28T18:42:37.475Z,10.72
2022-09-28T18:45:07.946Z,10.70
2022-09-28T18:47:37.414Z,10.68
2022-09-28T18:50:05.686Z,10.66
2022-09-28T18:52:36.375Z,10.64
2022-09-28T18:55:05.257Z,10.60
2022-09-28T18:57:34.470Z,10.51
2022-09-28T19:00:03.071Z,10.54
2022-09-28T19:02:31.132Z,10.53
2022-09-28T19:05:00.538Z,10.52
2022-09-28T19:07:28.614Z,10.39
2022-09-28T19:09:56.639Z,10.49
2022-09-28T19:12:25.048Z,10.49
2022-09-28T19:14:53.031Z,10.50
2022-09-28T19:17:21.696Z,10.50
2022-09-28T19:19:51.759Z,10.40
2022-09-28T19:22:21.131Z,10.44
2022-09-28T19:24:49.328Z,10.40
2022-09-28T19:27:17.257Z,10.15
2022-09-28T19:29:45.102Z,10.38
2022-09-28T19:32:13.267Z,10.04
2022-09-28T19:34:41.193Z,10.16
2022-09-28T19:37:09.077Z,10.17
2022-09-28T19:39:38.530Z,10.23
2022-09-28T19:42:06.798Z,10.19
2022-09-28T19:44:35.800Z,10.10
2022-09-28T19:47:07.111Z,9.89
2022-09-28T19:49:37.413Z,9.94
2022-09-28T19:52:13.364Z,10.12
2022-09-28T19:54:45.094Z,10.15
2022-09-28T19:57:16.033Z,10.20
2022-09-28T19:59:48.358Z,10.19
2022-09-28T20:02:18.781Z,10.12
2022-09-28T20:04:47.202Z,10.18
2022-09-28T20:07:15.216Z,10.17
2022-09-28T20:09:44.433Z,10.14
2022-09-28T20:12:12.767Z,10.17
2022-09-28T20:14:40.687Z,10.00
2022-09-28T20:17:09.025Z,10.15
2022-09-28T20:19:37.070Z,10.31
2022-09-28T20:22:05.259Z,10.01
2022-09-28T20:24:33.606Z,10.31
2022-09-28T20:27:03.178Z,10.17
2022-09-28T20:29:33.547Z,10.18
2022-09-28T20:32:02.045Z,10.12
2022-09-28T20:34:30.094Z,10.04
2022-09-28T20:36:57.911Z,9.96
2022-09-28T20:39:26.085Z,9.93
2022-09-28T20:41:55.135Z,9.89
2022-09-28T20:44:24.344Z,9.89
2022-09-28T20:46:52.606Z,9.90
2022-09-28T20:49:20.566Z,9.84
2022-09-28T20:51:48.361Z,9.96
2022-09-28T20:54:16.548Z,9.98
2022-09-28T20:56:44.633Z,9.95
2022-09-28T20:59:13.397Z,9.93
2022-09-28T21:01:42.949Z,9.89
2022-09-28T21:04:11.929Z,9.84
2022-09-28T21:06:41.932Z,9.78
2022-09-28T21:09:11.704Z,9.48
2022-09-28T21:11:40.383Z,9.69
2022-09-28T21:14:09.673Z,9.27
2022-09-28T21:16:38.401Z,9.59
2022-09-28T21:19:07.653Z,9.50
2022-09-28T21:21:35.840Z,9.47
2022-09-28T21:24:04.244Z,9.33
2022-09-28T21:26:32.990Z,9.35
2022-09-28T21:29:02.418Z,9.28
2022-09-28T21:31:33.785Z,9.21
2022-09-28T21:34:01.783Z,8.99
2022-09-28T21:36:31.360Z,9.10
2022-09-28T21:38:59.415Z,9.04
2022-09-28T21:41:28.803Z,9.03
2022-09-28T21:43:56.884Z,9.00
2022-09-28T21:46:24.981Z,8.18
2022-09-28T21:48:53.762Z,8.92
2022-09-28T21:51:21.803Z,8.91
2022-09-28T21:53:51.108Z,8.88
2022-09-28T21:56:19.101Z,8.86
2022-09-28T21:58:47.432Z,8.81
2022-09-28T22:01:18.430Z,8.40
2022-09-28T22:03:48.480Z,8.74
2022-09-28T22:06:18.398Z,8.78
2022-09-28T22:08:47.429Z,8.63
2022-09-28T22:11:19.428Z,8.72
2022-09-28T22:13:49.413Z,8.39
2022-09-28T22:16:19.720Z,8.72
2022-09-28T22:18:48.121Z,8.74
2022-09-28T22:21:18.423Z,8.78
2022-09-28T22:23:46.525Z,8.73
2022-09-28T22:26:19.577Z,8.97
2022-09-28T22:28:49.481Z,9.07
2022-09-28T22:31:18.668Z,9.19
2022-09-28T22:33:46.979Z,9.29
2022-09-28T22:36:17.016Z,9.42
2022-09-28T22:38:45.721Z,9.51
2022-09-28T22:41:16.107Z,9.59
2022-09-28T22:43:45.408Z,9.71
2022-09-28T22:46:15.281Z,9.80
2022-09-28T22:48:47.229Z,9.86
2022-09-28T22:51:15.755Z,9.80
2022-09-28T22:53:43.947Z,9.85
2022-09-28T22:56:17.532Z,10.01
2022-09-28T22:58:48.675Z,10.05
2022-09-28T23:01:18.641Z,10.09
2022-09-28T23:03:47.209Z,10.09
2022-09-28T23:06:17.204Z,9.93
2022-09-28T23:08:46.115Z,10.24
2022-09-28T23:11:14.265Z,10.25
2022-09-28T23:13:42.332Z,10.30
2022-09-28T23:16:14.843Z,10.28
2022-09-28T23:18:43.716Z,10.17
2022-09-28T23:21:15.153Z,10.22
2022-09-28T23:23:43.194Z,10.16
2022-09-28T23:26:13.345Z,10.04
2022-09-28T23:28:41.556Z,10.11
2022-09-28T23:31:12.348Z,10.07
2022-09-28T23:33:41.062Z,9.71
2022-09-28T23:36:09.596Z,9.99
2022-09-28T23:38:37.643Z,9.21
2022-09-28T23:41:05.680Z,9.90
2022-09-28T23:43:33.675Z,9.98
2022-09-28T23:46:01.711Z,9.96
2022-09-28T23:48:31.231Z,9.92
2022-09-28T23:50:59.055Z,9.89
2022-09-28T23:53:27.486Z,9.85
2022-09-28T23:55:56.694Z,9.80
2022-09-28T23:58:25.688Z,9.74
